Time;durP1;ratioP1;P1;durP2;ratioP2;P2;SDS_P1;SDS_P2;PMS_P1;PMS_P2;Temp;Humidity;BMP_temperature;BMP_pressure;BME280_temperature;BME280_humidity;BME280_pressure;Samples;Min_cycle;Max_cycle;Signal;HPM_P1;HPM_P2
2023/06/18 00:02:14;;;;;;;18.25;12.77;;;;;;;;;;5011369;28;20463;-77
2023/06/18 00:04:40;;;;;;;19.95;12.50;;;;;;;;;;5010064;28;20022;-76
2023/06/18 00:07:05;;;;;;;20.48;13.15;;;;;;;;;;5010078;28;20109;-77
2023/06/18 00:09:51;;;;;;;22.15;13.18;;;;;;;;;;5009931;28;20053;-77
2023/06/18 00:15:38;;;;;;;17.13;13.45;;;;;;;;;;5011696;28;20493;-78
2023/06/18 00:18:03;;;;;;;17.52;12.50;;;;;;;;;;5011481;28;20029;-78
2023/06/18 00:20:29;;;;;;;21.35;13.10;;;;;;;;;;5009607;28;20026;-76
2023/06/18 00:22:55;;;;;;;17.58;12.73;;;;;;;;;;5026073;28;20032;-76
2023/06/18 00:25:39;;;;;;;19.10;12.75;;;;;;;;;;5010580;28;20038;-76
2023/06/18 00:34:12;;;;;;;16.17;11.73;;;;;;;;;;5010970;28;20076;-77
2023/06/18 00:39:41;;;;;;;18.13;12.45;;;;;;;;;;5011086;28;20037;-77
2023/06/18 00:42:07;;;;;;;16.38;12.93;;;;;;;;;;5010850;28;20034;-77
2023/06/18 00:47:55;;;;;;;30.42;12.13;;;;;;;;;;5013768;28;20044;-77
2023/06/18 00:53:25;;;;;;;16.80;11.20;;;;;;;;;;5014939;28;20037;-78
2023/06/18 00:56:29;;;;;;;19.08;11.93;;;;;;;;;;5028915;28;20036;-77
2023/06/18 00:58:57;;;;;;;19.25;12.77;;;;;;;;;;5010154;28;20088;-76
2023/06/18 01:01:22;;;;;;;19.88;12.68;;;;;;;;;;5010298;28;20438;-77
2023/06/18 01:03:49;;;;;;;15.38;11.05;;;;;;;;;;5010878;28;20033;-77
2023/06/18 01:06:17;;;;;;;16.63;11.82;;;;;;;;;;5009567;28;20030;-77
2023/06/18 01:08:48;;;;;;;16.52;11.00;;;;;;;;;;5010228;28;20148;-77
2023/06/18 01:11:18;;;;;;;15.98;11.07;;;;;;;;;;5008238;28;20061;-78
2023/06/18 01:13:45;;;;;;;18.33;10.68;;;;;;;;;;5009319;28;20072;-77
2023/06/18 01:16:23;;;;;;;18.50;11.43;;;;;;;;;;5009042;28;20045;-77
2023/06/18 01:18:53;;;;;;;12.68;9.77;;;;;;;;;;5011460;28;20079;-78
2023/06/18 01:21:23;;;;;;;14.95;10.60;;;;;;;;;;5010252;28;20041;-78
2023/06/18 01:24:19;;;;;;;17.67;10.82;;;;;;;;;;5008948;28;20029;-76
2023/06/18 01:26:48;;;;;;;14.40;10.20;;;;;;;;;;5008869;28;20033;-77
2023/06/18 01:29:19;;;;;;;16.42;11.07;;;;;;;;;;5004712;28;20057;-77
2023/06/18 01:31:52;;;;;;;14.23;10.50;;;;;;;;;;5009151;28;20022;-77
2023/06/18 01:34:24;;;;;;;15.48;10.45;;;;;;;;;;5008808;28;20120;-77
2023/06/18 01:37:01;;;;;;;18.02;11.90;;;;;;;;;;5008887;28;20092;-77
2023/06/18 01:39:41;;;;;;;18.65;10.40;;;;;;;;;;5008485;28;20036;-79
2023/06/18 01:42:19;;;;;;;18.92;11.13;;;;;;;;;;4999007;28;20044;-78
2023/06/18 01:44:50;;;;;;;14.32;10.70;;;;;;;;;;4989092;28;20026;-76
2023/06/18 01:47:20;;;;;;;16.48;11.32;;;;;;;;;;4988925;28;20070;-77
2023/06/18 01:49:51;;;;;;;17.42;11.45;;;;;;;;;;4990528;28;20027;-78
2023/06/18 01:52:18;;;;;;;16.10;11.05;;;;;;;;;;4990200;28;20030;-78
2023/06/18 02:04:13;;;;;;;14.87;9.93;;;;;;;;;;4991849;28;20534;-77
2023/06/18 02:06:56;;;;;;;15.65;10.45;;;;;;;;;;4991809;28;20272;-78
2023/06/18 02:18:31;;;;;;;15.73;10.50;;;;;;;;;;4993037;28;20041;-78
2023/06/18 02:21:34;;;;;;;17.88;10.10;;;;;;;;;;4991303;28;20050;-78
2023/06/18 02:23:59;;;;;;;14.05;9.43;;;;;;;;;;4990547;28;20120;-77
2023/06/18 02:26:25;;;;;;;13.90;10.40;;;;;;;;;;4991450;28;20476;-78
2023/06/18 02:31:34;;;;;;;17.02;10.48;;;;;;;;;;4990997;28;20040;-77
2023/06/18 02:34:00;;;;;;;15.02;9.90;;;;;;;;;;4991268;28;20026;-78
2023/06/18 02:36:26;;;;;;;13.68;9.73;;;;;;;;;;4993207;28;20486;-76
2023/06/18 02:38:52;;;;;;;15.18;9.43;;;;;;;;;;4994972;28;20050;-78
2023/06/18 02:41:19;;;;;;;18.23;10.43;;;;;;;;;;4994525;28;20062;-78
2023/06/18 02:43:49;;;;;;;15.07;10.52;;;;;;;;;;4992645;28;20117;-76
2023/06/18 02:46:16;;;;;;;17.23;9.73;;;;;;;;;;4994472;28;20355;-78
2023/06/18 02:48:42;;;;;;;17.58;10.77;;;;;;;;;;4992082;28;20077;-78
2023/06/18 02:51:08;;;;;;;13.50;10.02;;;;;;;;;;4994761;28;20030;-77
2023/06/18 02:53:33;;;;;;;18.17;10.60;;;;;;;;;;4996995;28;20482;-78
2023/06/18 02:55:59;;;;;;;13.77;9.77;;;;;;;;;;5008343;28;20092;-77
2023/06/18 02:58:30;;;;;;;14.60;11.25;;;;;;;;;;4992901;28;20041;-77
2023/06/18 03:00:56;;;;;;;11.52;8.90;;;;;;;;;;4992794;28;20022;-77
2023/06/18 03:03:23;;;;;;;16.13;9.90;;;;;;;;;;5007536;28;20516;-77
2023/06/18 03:05:49;;;;;;;17.70;9.80;;;;;;;;;;4991651;28;20315;-77
2023/06/18 03:08:15;;;;;;;18.80;10.93;;;;;;;;;;4991460;28;20053;-78
2023/06/18 03:10:44;;;;;;;13.85;9.85;;;;;;;;;;4991088;28;20867;-78
2023/06/18 03:13:09;;;;;;;12.80;9.75;;;;;;;;;;5007937;28;20019;-78
2023/06/18 03:15:35;;;;;;;14.70;10.00;;;;;;;;;;4991461;28;20037;-77
2023/06/18 03:18:00;;;;;;;15.45;10.20;;;;;;;;;;4991657;28;20474;-77
2023/06/18 03:20:28;;;;;;;12.45;9.40;;;;;;;;;;4993673;28;20104;-77
2023/06/18 03:22:55;;;;;;;13.73;9.90;;;;;;;;;;4994633;28;20030;-78
2023/06/18 03:25:20;;;;;;;13.02;9.35;;;;;;;;;;4996387;28;20034;-78
2023/06/18 03:27:47;;;;;;;14.35;10.15;;;;;;;;;;4993384;28;20648;-77
2023/06/18 03:30:13;;;;;;;14.05;10.43;;;;;;;;;;4993293;28;20069;-77
2023/06/18 03:32:39;;;;;;;15.73;11.05;;;;;;;;;;4993272;28;20522;-77
2023/06/18 03:35:06;;;;;;;17.45;10.52;;;;;;;;;;5012085;28;20025;-78
2023/06/18 03:37:32;;;;;;;19.60;10.65;;;;;;;;;;5026771;28;20127;-77
2023/06/18 03:39:57;;;;;;;17.63;11.73;;;;;;;;;;5011943;28;20113;-77
2023/06/18 03:42:26;;;;;;;15.65;11.05;;;;;;;;;;5011332;28;20438;-78
2023/06/18 03:44:52;;;;;;;16.20;11.05;;;;;;;;;;5011672;28;20064;-78
2023/06/18 03:47:17;;;;;;;17.13;11.50;;;;;;;;;;5009659;28;20053;-78
2023/06/18 03:49:43;;;;;;;18.67;11.48;;;;;;;;;;5011723;28;20322;-77
2023/06/18 03:52:09;;;;;;;15.93;11.02;;;;;;;;;;5011714;28;20029;-78
2023/06/18 03:54:35;;;;;;;18.52;11.02;;;;;;;;;;5011580;28;20067;-77
2023/06/18 03:57:00;;;;;;;17.80;10.00;;;;;;;;;;5026706;28;20075;-77
2023/06/18 03:59:26;;;;;;;18.80;10.13;;;;;;;;;;5011352;28;20033;-76
2023/06/18 04:01:51;;;;;;;17.25;9.85;;;;;;;;;;5011348;28;20033;-77
2023/06/18 04:04:17;;;;;;;14.30;10.40;;;;;;;;;;5009611;28;20080;-77
2023/06/18 04:06:43;;;;;;;14.32;10.70;;;;;;;;;;5009483;28;20426;-76
2023/06/18 04:09:08;;;;;;;16.88;10.27;;;;;;;;;;5011559;28;20032;-77
2023/06/18 04:11:40;;;;;;;14.10;10.10;;;;;;;;;;5011380;28;20057;-78
2023/06/18 04:14:05;;;;;;;14.88;10.07;;;;;;;;;;5011457;28;20402;-77
2023/06/18 04:16:31;;;;;;;13.70;9.75;;;;;;;;;;5010962;28;20022;-78
2023/06/18 04:18:56;;;;;;;12.93;9.25;;;;;;;;;;5011189;28;20036;-77
2023/06/18 04:27:27;;;;;;;17.08;10.38;;;;;;;;;;5010756;28;20481;-76
2023/06/18 04:29:53;;;;;;;18.13;10.25;;;;;;;;;;5009737;28;20026;-76
2023/06/18 04:32:18;;;;;;;14.20;9.40;;;;;;;;;;5026519;28;20030;-76
2023/06/18 04:34:44;;;;;;;13.15;9.75;;;;;;;;;;5010132;28;20033;-76
2023/06/18 04:37:09;;;;;;;14.98;9.45;;;;;;;;;;5011044;28;20480;-77
2023/06/18 04:39:35;;;;;;;18.20;11.63;;;;;;;;;;5010962;28;20088;-77
2023/06/18 04:42:01;;;;;;;14.52;10.00;;;;;;;;;;5011035;28;20032;-77
2023/06/18 04:44:26;;;;;;;14.57;10.35;;;;;;;;;;5011211;28;20058;-77
2023/06/18 04:46:52;;;;;;;13.68;10.13;;;;;;;;;;5009288;28;20493;-77
2023/06/18 04:49:18;;;;;;;12.70;9.63;;;;;;;;;;5009734;28;20026;-77
2023/06/18 04:51:44;;;;;;;16.17;10.70;;;;;;;;;;5009411;28;20034;-77
2023/06/18 04:54:11;;;;;;;18.48;10.52;;;;;;;;;;5012278;28;20470;-77
2023/06/18 04:56:36;;;;;;;20.48;10.23;;;;;;;;;;5011247;28;20079;-77
2023/06/18 04:59:02;;;;;;;23.02;10.32;;;;;;;;;;5010699;28;20109;-77
2023/06/18 05:01:28;;;;;;;14.50;10.07;;;;;;;;;;5011406;28;20030;-78
2023/06/18 05:03:54;;;;;;;15.35;9.90;;;;;;;;;;5010115;28;20021;-78
2023/06/18 05:06:19;;;;;;;15.15;10.27;;;;;;;;;;5012598;28;20076;-78
2023/06/18 05:08:46;;;;;;;15.95;10.20;;;;;;;;;;5011454;28;20088;-77
2023/06/18 05:11:12;;;;;;;14.43;10.23;;;;;;;;;;5010022;28;20188;-79
2023/06/18 05:13:39;;;;;;;15.95;10.52;;;;;;;;;;4994296;28;20565;-77
2023/06/18 05:16:05;;;;;;;15.82;10.30;;;;;;;;;;5009864;28;20029;-77
2023/06/18 05:18:30;;;;;;;13.75;10.02;;;;;;;;;;5010572;28;20026;-76
2023/06/18 05:20:56;;;;;;;15.50;9.25;;;;;;;;;;5010932;28;20516;-77
2023/06/18 05:23:21;;;;;;;13.32;9.32;;;;;;;;;;5009386;28;20185;-78
2023/06/18 05:25:47;;;;;;;14.25;9.80;;;;;;;;;;5008948;28;20014;-77
2023/06/18 05:28:13;;;;;;;15.05;10.05;;;;;;;;;;5010097;28;20101;-77
2023/06/18 05:30:38;;;;;;;14.13;10.20;;;;;;;;;;5010094;28;20034;-77
2023/06/18 05:33:04;;;;;;;14.02;10.07;;;;;;;;;;5010799;28;20061;-78
2023/06/18 05:35:29;;;;;;;14.90;10.38;;;;;;;;;;5010243;28;20092;-78
2023/06/18 05:37:55;;;;;;;15.45;10.15;;;;;;;;;;5009974;28;20022;-77
2023/06/18 05:40:20;;;;;;;14.52;9.55;;;;;;;;;;5008687;28;20133;-76
2023/06/18 05:42:46;;;;;;;13.73;9.20;;;;;;;;;;5008848;28;20133;-78
2023/06/18 05:45:11;;;;;;;13.88;9.98;;;;;;;;;;5009626;28;20026;-78
2023/06/18 05:47:37;;;;;;;14.32;10.10;;;;;;;;;;5009609;28;20034;-78
2023/06/18 05:50:03;;;;;;;13.65;9.57;;;;;;;;;;5010006;28;20036;-79
2023/06/18 05:52:28;;;;;;;13.60;9.85;;;;;;;;;;5010258;28;20025;-78
2023/06/18 05:54:54;;;;;;;15.98;11.05;;;;;;;;;;5015029;28;20410;-77
2023/06/18 05:57:19;;;;;;;14.20;10.00;;;;;;;;;;5018187;28;20125;-77
2023/06/18 05:59:47;;;;;;;15.63;10.32;;;;;;;;;;5016747;28;20394;-77
2023/06/18 06:02:13;;;;;;;12.43;9.27;;;;;;;;;;5031600;28;20084;-76
2023/06/18 06:04:38;;;;;;;13.32;9.75;;;;;;;;;;5015983;28;20030;-78
2023/06/18 06:07:04;;;;;;;16.00;10.48;;;;;;;;;;5012937;28;20022;-77
2023/06/18 06:09:30;;;;;;;13.88;9.10;;;;;;;;;;5008956;28;20030;-78
2023/06/18 06:11:55;;;;;;;12.05;9.35;;;;;;;;;;5011149;28;20095;-77
2023/06/18 06:14:21;;;;;;;15.02;9.02;;;;;;;;;;5013954;28;20049;-78
2023/06/18 06:16:47;;;;;;;13.13;9.70;;;;;;;;;;5012427;28;20104;-78
2023/06/18 06:19:12;;;;;;;12.98;9.23;;;;;;;;;;5013355;28;20057;-78
2023/06/18 06:21:38;;;;;;;14.25;9.20;;;;;;;;;;5011282;28;20065;-78
2023/06/18 06:24:03;;;;;;;14.80;9.60;;;;;;;;;;5011885;28;20068;-78
2023/06/18 06:26:29;;;;;;;16.80;10.00;;;;;;;;;;5013060;28;20471;-77
2023/06/18 06:28:54;;;;;;;16.25;9.88;;;;;;;;;;5012491;28;20022;-77
2023/06/18 06:31:20;;;;;;;15.15;10.13;;;;;;;;;;5011601;28;20072;-77
2023/06/18 06:33:46;;;;;;;17.38;10.52;;;;;;;;;;5013214;28;20433;-78
2023/06/18 06:36:12;;;;;;;14.35;9.82;;;;;;;;;;5011965;28;20030;-77
2023/06/18 06:38:38;;;;;;;15.85;9.88;;;;;;;;;;5012956;28;20026;-78
2023/06/18 06:41:03;;;;;;;15.77;10.82;;;;;;;;;;5013810;28;20053;-78
2023/06/18 06:43:30;;;;;;;13.50;10.60;;;;;;;;;;5012973;28;20143;-78
2023/06/18 06:45:55;;;;;;;15.20;10.55;;;;;;;;;;5012857;28;20599;-78
2023/06/18 06:48:21;;;;;;;17.48;12.80;;;;;;;;;;5011457;28;20116;-77
2023/06/18 06:50:46;;;;;;;14.27;10.50;;;;;;;;;;5012812;28;20149;-78
2023/06/18 06:53:12;;;;;;;12.98;10.45;;;;;;;;;;5010798;28;20022;-78
2023/06/18 06:55:37;;;;;;;17.15;11.48;;;;;;;;;;5012181;28;20113;-78
2023/06/18 06:58:03;;;;;;;19.88;11.88;;;;;;;;;;5012422;28;20069;-78
2023/06/18 07:00:28;;;;;;;18.42;11.35;;;;;;;;;;5015604;28;20029;-78
2023/06/18 07:02:54;;;;;;;18.65;12.18;;;;;;;;;;5017737;28;20034;-78
2023/06/18 07:05:19;;;;;;;16.73;12.00;;;;;;;;;;5012042;28;20156;-77
2023/06/18 07:07:45;;;;;;;15.77;12.02;;;;;;;;;;5011293;28;20100;-77
2023/06/18 07:10:10;;;;;;;17.38;12.75;;;;;;;;;;5012792;28;20038;-78
2023/06/18 07:12:36;;;;;;;19.88;13.15;;;;;;;;;;5012414;28;20029;-78
2023/06/18 07:15:02;;;;;;;14.13;10.55;;;;;;;;;;5012689;28;20041;-78
2023/06/18 07:17:27;;;;;;;20.67;12.90;;;;;;;;;;5011178;28;20081;-78
2023/06/18 07:19:54;;;;;;;14.90;10.65;;;;;;;;;;5012565;28;20533;-78
2023/06/18 07:22:20;;;;;;;16.45;10.90;;;;;;;;;;5011801;28;20095;-78
2023/06/18 07:24:46;;;;;;;17.27;12.60;;;;;;;;;;5010922;28;20497;-78
2023/06/18 07:27:11;;;;;;;17.30;11.30;;;;;;;;;;5012729;28;20034;-78
2023/06/18 07:29:37;;;;;;;18.05;11.52;;;;;;;;;;5012484;28;20034;-79
2023/06/18 07:32:02;;;;;;;16.95;12.38;;;;;;;;;;5011254;28;20029;-78
2023/06/18 07:34:28;;;;;;;18.52;13.93;;;;;;;;;;5012747;28;20096;-78
2023/06/18 07:36:53;;;;;;;20.25;13.63;;;;;;;;;;5013500;28;20030;-78
2023/06/18 07:39:19;;;;;;;21.90;14.55;;;;;;;;;;5012422;28;20045;-79
2023/06/18 07:41:47;;;;;;;20.77;12.82;;;;;;;;;;5015001;28;20030;-79
2023/06/18 07:44:14;;;;;;;20.42;13.35;;;;;;;;;;5033750;28;20045;-79
2023/06/18 07:46:42;;;;;;;21.77;13.48;;;;;;;;;;5030914;28;20022;-78
2023/06/18 07:49:08;;;;;;;16.38;11.90;;;;;;;;;;5025409;28;20026;-79
2023/06/18 07:51:34;;;;;;;16.75;12.52;;;;;;;;;;5012565;28;20064;-77
2023/06/18 07:53:59;;;;;;;19.00;12.82;;;;;;;;;;5010698;28;20049;-79
2023/06/18 07:56:26;;;;;;;18.08;12.25;;;;;;;;;;5011117;28;20025;-79
2023/06/18 07:58:52;;;;;;;16.85;11.25;;;;;;;;;;5010060;28;20473;-78
2023/06/18 08:01:18;;;;;;;18.30;11.80;;;;;;;;;;5010239;28;20212;-78
2023/06/18 08:03:44;;;;;;;16.33;11.38;;;;;;;;;;5010467;28;20125;-78
2023/06/18 08:06:09;;;;;;;17.23;12.35;;;;;;;;;;5011953;28;20101;-79
2023/06/18 08:08:35;;;;;;;17.30;12.50;;;;;;;;;;5011021;28;20025;-79
2023/06/18 08:11:01;;;;;;;18.00;12.88;;;;;;;;;;5010588;28;20029;-79
2023/06/18 08:13:26;;;;;;;18.27;12.10;;;;;;;;;;5012702;28;20041;-78
2023/06/18 08:15:52;;;;;;;18.40;12.57;;;;;;;;;;5012836;28;20030;-79
2023/06/18 08:18:17;;;;;;;19.20;11.05;;;;;;;;;;5014322;28;20112;-79
2023/06/18 08:20:43;;;;;;;18.25;12.07;;;;;;;;;;5012685;28;20061;-78
2023/06/18 08:23:08;;;;;;;14.98;12.02;;;;;;;;;;5012049;28;20605;-77
2023/06/18 08:25:35;;;;;;;20.35;11.48;;;;;;;;;;5011860;28;20519;-79
2023/06/18 08:28:00;;;;;;;20.63;12.98;;;;;;;;;;5010421;28;20029;-78
2023/06/18 08:30:26;;;;;;;16.55;12.40;;;;;;;;;;5011133;28;20070;-79
2023/06/18 08:32:54;;;;;;;17.02;13.27;;;;;;;;;;5010665;28;20026;-79
2023/06/18 08:35:20;;;;;;;17.52;12.82;;;;;;;;;;5028362;28;20458;-78
2023/06/18 08:37:47;;;;;;;17.65;12.68;;;;;;;;;;5013465;28;20076;-78
2023/06/18 08:40:14;;;;;;;18.88;10.55;;;;;;;;;;5012484;28;20030;-79
2023/06/18 08:42:40;;;;;;;19.83;11.48;;;;;;;;;;5011992;28;20053;-78
2023/06/18 08:45:06;;;;;;;15.68;10.48;;;;;;;;;;5012465;28;20025;-78
2023/06/18 08:47:33;;;;;;;12.40;8.63;;;;;;;;;;5011675;28;20092;-79
2023/06/18 08:49:59;;;;;;;12.65;9.52;;;;;;;;;;5015018;28;20022;-79
2023/06/18 08:52:29;;;;;;;12.45;9.90;;;;;;;;;;5015510;28;20546;-77
2023/06/18 08:54:57;;;;;;;14.55;9.88;;;;;;;;;;5015889;28;20022;-79
2023/06/18 08:57:32;;;;;;;12.93;9.82;;;;;;;;;;5014521;28;20022;-79
2023/06/18 08:59:59;;;;;;;12.13;9.82;;;;;;;;;;5011624;28;20022;-79
2023/06/18 09:02:27;;;;;;;13.90;9.95;;;;;;;;;;5010914;28;20171;-78
2023/06/18 09:04:55;;;;;;;20.20;11.70;;;;;;;;;;5017260;28;20647;-78
2023/06/18 09:07:23;;;;;;;13.15;9.63;;;;;;;;;;5011369;28;20037;-79
2023/06/18 09:09:49;;;;;;;13.82;10.02;;;;;;;;;;5010531;28;20469;-78
2023/06/18 09:12:15;;;;;;;18.05;10.38;;;;;;;;;;5009662;28;20116;-78
2023/06/18 09:14:40;;;;;;;13.30;10.73;;;;;;;;;;5009478;28;20049;-79
2023/06/18 09:17:06;;;;;;;11.95;9.63;;;;;;;;;;5011066;28;20749;-78
2023/06/18 09:19:33;;;;;;;12.50;10.10;;;;;;;;;;5009381;28;20485;-78
2023/06/18 09:22:16;;;;;;;13.23;10.07;;;;;;;;;;5010315;28;20565;-78
2023/06/18 09:24:42;;;;;;;14.68;10.00;;;;;;;;;;5009029;28;20028;-78
2023/06/18 09:27:08;;;;;;;12.98;10.20;;;;;;;;;;5009559;28;20141;-79
2023/06/18 09:29:36;;;;;;;12.60;10.02;;;;;;;;;;5010881;28;20572;-79
2023/06/18 09:32:20;;;;;;;14.75;10.10;;;;;;;;;;5010558;28;20073;-79
2023/06/18 09:34:45;;;;;;;12.57;10.27;;;;;;;;;;5010996;28;20213;-78
2023/06/18 09:37:13;;;;;;;12.52;9.85;;;;;;;;;;5009371;28;20120;-79
2023/06/18 09:39:40;;;;;;;13.02;10.10;;;;;;;;;;5010425;28;20510;-78
2023/06/18 09:42:08;;;;;;;11.20;9.70;;;;;;;;;;5025302;28;20041;-78
2023/06/18 09:44:34;;;;;;;13.77;10.00;;;;;;;;;;5010200;28;20034;-77
2023/06/18 09:47:00;;;;;;;15.07;10.90;;;;;;;;;;5012195;28;20026;-79
2023/06/18 09:49:27;;;;;;;16.48;10.90;;;;;;;;;;5011737;28;20033;-79
2023/06/18 09:51:54;;;;;;;11.52;9.10;;;;;;;;;;5012259;28;20026;-78
2023/06/18 09:54:20;;;;;;;10.73;9.23;;;;;;;;;;5014327;28;20123;-78
2023/06/18 09:57:00;;;;;;;13.18;9.70;;;;;;;;;;5012354;28;20018;-78
2023/06/18 09:59:27;;;;;;;18.02;8.75;;;;;;;;;;5012314;28;20039;-78
2023/06/18 10:01:54;;;;;;;11.82;9.20;;;;;;;;;;5013930;28;20095;-78
2023/06/18 10:04:20;;;;;;;11.15;8.80;;;;;;;;;;5012965;28;20030;-79
2023/06/18 10:06:51;;;;;;;11.48;9.13;;;;;;;;;;5012353;28;20037;-78
2023/06/18 10:09:21;;;;;;;15.60;9.70;;;;;;;;;;5013624;28;20014;-79
2023/06/18 10:11:54;;;;;;;13.40;9.18;;;;;;;;;;5012499;28;20060;-77
2023/06/18 10:14:25;;;;;;;13.43;9.27;;;;;;;;;;5013279;28;20418;-78
2023/06/18 10:16:54;;;;;;;13.38;9.25;;;;;;;;;;5011534;28;20049;-78
2023/06/18 10:19:25;;;;;;;14.32;9.00;;;;;;;;;;5011738;28;20462;-77
2023/06/18 10:21:57;;;;;;;11.25;8.98;;;;;;;;;;5011489;28;20049;-78
2023/06/18 10:24:42;;;;;;;10.43;8.93;;;;;;;;;;5012129;28;20029;-78
2023/06/18 10:27:07;;;;;;;9.82;8.80;;;;;;;;;;5013855;28;20394;-78
2023/06/18 10:29:33;;;;;;;12.32;8.77;;;;;;;;;;5013995;28;20030;-79
2023/06/18 10:32:03;;;;;;;10.98;9.48;;;;;;;;;;5013868;28;20108;-78
2023/06/18 10:34:29;;;;;;;12.68;8.45;;;;;;;;;;5014200;28;20049;-79
2023/06/18 10:36:56;;;;;;;10.48;8.18;;;;;;;;;;5012552;28;20050;-79
2023/06/18 10:39:23;;;;;;;13.20;9.18;;;;;;;;;;5011936;28;20506;-78
2023/06/18 10:41:51;;;;;;;11.00;8.50;;;;;;;;;;5011776;28;20038;-77
2023/06/18 10:44:31;;;;;;;11.00;8.93;;;;;;;;;;5011531;28;20053;-78
2023/06/18 10:47:17;;;;;;;11.50;8.18;;;;;;;;;;5011409;28;20124;-77
2023/06/18 10:50:03;;;;;;;11.32;8.68;;;;;;;;;;5013058;28;20030;-77
2023/06/18 10:52:30;;;;;;;10.93;7.72;;;;;;;;;;5013290;28;20021;-78
2023/06/18 10:55:09;;;;;;;9.23;7.60;;;;;;;;;;5013193;28;20046;-77
2023/06/18 10:57:39;;;;;;;10.20;7.50;;;;;;;;;;5013228;28;20084;-78
2023/06/18 11:00:17;;;;;;;8.65;6.85;;;;;;;;;;5011836;28;20045;-78
2023/06/18 11:02:43;;;;;;;10.35;7.93;;;;;;;;;;5014414;28;20117;-79
2023/06/18 11:05:41;;;;;;;11.85;7.20;;;;;;;;;;5015284;28;20034;-78
2023/06/18 11:08:10;;;;;;;9.07;7.63;;;;;;;;;;5004787;28;20038;-79
2023/06/18 11:10:47;;;;;;;8.15;6.68;;;;;;;;;;5022447;28;20026;-80
2023/06/18 11:13:12;;;;;;;7.53;6.68;;;;;;;;;;5025515;28;20029;-78
2023/06/18 11:16:10;;;;;;;9.05;6.55;;;;;;;;;;5021859;28;20038;-79
2023/06/18 11:18:41;;;;;;;10.13;6.70;;;;;;;;;;5018965;28;20037;-78
2023/06/18 11:21:12;;;;;;;7.47;6.60;;;;;;;;;;5013973;28;20419;-78
2023/06/18 11:23:38;;;;;;;9.07;7.00;;;;;;;;;;5013260;28;20041;-78
2023/06/18 11:26:04;;;;;;;7.40;6.70;;;;;;;;;;5012657;28;20030;-78
2023/06/18 11:28:30;;;;;;;10.23;6.90;;;;;;;;;;5012579;28;20041;-77
2023/06/18 11:30:58;;;;;;;8.18;7.38;;;;;;;;;;5010447;28;20030;-78
2023/06/18 11:33:24;;;;;;;9.63;7.10;;;;;;;;;;5011187;28;20029;-78
2023/06/18 11:35:51;;;;;;;11.63;7.47;;;;;;;;;;5012230;28;20044;-77
2023/06/18 11:38:18;;;;;;;9.20;7.28;;;;;;;;;;5011248;28;20041;-79
2023/06/18 11:40:54;;;;;;;7.65;6.85;;;;;;;;;;5010851;28;20029;-78
2023/06/18 11:43:20;;;;;;;8.98;7.43;;;;;;;;;;5011680;28;20094;-78
2023/06/18 11:45:50;;;;;;;7.68;6.88;;;;;;;;;;5012820;28;20061;-78
2023/06/18 11:48:19;;;;;;;10.88;7.20;;;;;;;;;;5013347;28;20022;-77
2023/06/18 11:50:46;;;;;;;9.25;7.18;;;;;;;;;;5012062;28;20064;-78
2023/06/18 11:53:13;;;;;;;8.63;6.97;;;;;;;;;;5012649;28;20056;-77
2023/06/18 11:55:41;;;;;;;9.10;7.40;;;;;;;;;;5014955;28;20030;-79
2023/06/18 11:58:07;;;;;;;8.90;6.72;;;;;;;;;;5013714;28;20026;-79
2023/06/18 12:00:33;;;;;;;8.05;7.22;;;;;;;;;;5013194;28;20100;-79
2023/06/18 12:03:01;;;;;;;6.90;6.20;;;;;;;;;;5014049;28;20443;-78
2023/06/18 12:05:53;;;;;;;9.07;7.60;;;;;;;;;;5014616;28;20033;-79
2023/06/18 12:08:19;;;;;;;8.52;6.22;;;;;;;;;;5012623;28;20030;-78
2023/06/18 12:10:47;;;;;;;8.85;6.63;;;;;;;;;;5014343;28;20033;-78
2023/06/18 12:13:37;;;;;;;11.55;6.43;;;;;;;;;;5012381;28;20133;-78
2023/06/18 12:16:12;;;;;;;8.38;6.50;;;;;;;;;;5009812;28;20080;-78
2023/06/18 12:18:43;;;;;;;7.03;6.25;;;;;;;;;;5011753;28;20026;-78
2023/06/18 12:21:09;;;;;;;8.90;6.68;;;;;;;;;;5009723;28;20070;-79
2023/06/18 12:23:38;;;;;;;6.28;5.63;;;;;;;;;;5009909;28;20068;-78
2023/06/18 12:26:04;;;;;;;10.07;7.25;;;;;;;;;;5009068;28;20029;-77
2023/06/18 12:28:33;;;;;;;7.40;6.15;;;;;;;;;;5010855;28;20037;-78
2023/06/18 12:31:06;;;;;;;7.47;5.75;;;;;;;;;;5009759;28;20030;-78
2023/06/18 12:33:37;;;;;;;6.97;6.07;;;;;;;;;;5009695;28;20057;-77
2023/06/18 12:36:04;;;;;;;15.48;6.38;;;;;;;;;;5009235;28;20037;-77
2023/06/18 12:38:45;;;;;;;12.50;6.50;;;;;;;;;;5010926;28;20060;-77
2023/06/18 12:41:23;;;;;;;6.45;5.57;;;;;;;;;;5010601;28;20393;-79
2023/06/18 12:43:49;;;;;;;7.28;5.78;;;;;;;;;;5009579;28;20057;-79
2023/06/18 12:46:27;;;;;;;8.70;6.07;;;;;;;;;;5009188;28;20068;-77
2023/06/18 12:48:57;;;;;;;8.77;5.78;;;;;;;;;;4993090;28;20061;-78
2023/06/18 12:51:39;;;;;;;6.60;6.00;;;;;;;;;;5011090;28;20053;-79
2023/06/18 12:54:17;;;;;;;9.10;6.05;;;;;;;;;;5010428;28;20021;-77
2023/06/18 12:56:53;;;;;;;6.68;5.60;;;;;;;;;;5009644;28;20117;-78
2023/06/18 12:59:22;;;;;;;6.80;6.10;;;;;;;;;;5009357;28;20053;-77
2023/06/18 13:01:48;;;;;;;11.20;6.18;;;;;;;;;;5011370;28;20029;-78
2023/06/18 13:04:16;;;;;;;5.93;5.20;;;;;;;;;;5009576;28;20382;-77
2023/06/18 13:06:43;;;;;;;6.80;6.05;;;;;;;;;;5009642;28;20026;-78
2023/06/18 13:09:09;;;;;;;9.27;6.00;;;;;;;;;;5009310;28;20120;-79
2023/06/18 13:11:36;;;;;;;6.03;5.53;;;;;;;;;;5009807;28;20109;-77
2023/06/18 13:14:02;;;;;;;6.28;5.68;;;;;;;;;;5009084;28;20120;-79
2023/06/18 13:16:28;;;;;;;6.20;5.60;;;;;;;;;;5009913;28;20116;-77
2023/06/18 13:18:54;;;;;;;6.20;5.45;;;;;;;;;;5010584;28;20052;-78
2023/06/18 13:21:20;;;;;;;6.15;5.40;;;;;;;;;;5010171;28;20050;-78
2023/06/18 13:23:45;;;;;;;6.00;5.40;;;;;;;;;;5012393;28;20526;-78
2023/06/18 13:26:11;;;;;;;6.75;5.28;;;;;;;;;;5010155;28;20029;-79
2023/06/18 13:28:36;;;;;;;6.72;5.88;;;;;;;;;;5011522;28;20033;-79
2023/06/18 13:31:02;;;;;;;6.60;4.75;;;;;;;;;;5008612;28;20018;-78
2023/06/18 13:33:27;;;;;;;6.60;5.45;;;;;;;;;;5008922;28;20034;-78
2023/06/18 13:35:53;;;;;;;7.28;5.63;;;;;;;;;;5008974;28;20033;-79
2023/06/18 13:38:18;;;;;;;7.15;5.10;;;;;;;;;;5010460;28;20123;-78
2023/06/18 13:40:44;;;;;;;6.30;5.70;;;;;;;;;;5010131;28;20711;-79
2023/06/18 13:43:11;;;;;;;10.23;6.30;;;;;;;;;;5009925;28;20403;-78
2023/06/18 13:45:39;;;;;;;5.90;5.32;;;;;;;;;;5010276;28;20029;-78
2023/06/18 13:48:05;;;;;;;8.75;5.65;;;;;;;;;;5008434;28;20026;-79
2023/06/18 13:50:31;;;;;;;7.13;5.38;;;;;;;;;;5010869;28;20026;-77
2023/06/18 13:52:56;;;;;;;5.88;5.30;;;;;;;;;;5009114;28;20071;-79
2023/06/18 13:55:22;;;;;;;5.90;5.32;;;;;;;;;;5010177;28;20026;-79
2023/06/18 13:57:48;;;;;;;12.02;6.07;;;;;;;;;;5010327;28;20018;-79
2023/06/18 14:00:14;;;;;;;8.32;5.13;;;;;;;;;;5008499;28;20037;-78
2023/06/18 14:02:40;;;;;;;7.95;5.53;;;;;;;;;;5008706;28;20052;-78
2023/06/18 14:05:06;;;;;;;5.85;5.35;;;;;;;;;;5009694;28;20080;-78
2023/06/18 14:07:32;;;;;;;5.40;4.90;;;;;;;;;;5009589;28;20121;-78
2023/06/18 14:09:58;;;;;;;6.05;5.45;;;;;;;;;;5009273;28;20101;-78
2023/06/18 14:12:25;;;;;;;5.65;5.05;;;;;;;;;;5009498;28;20888;-80
2023/06/18 14:14:51;;;;;;;5.90;5.05;;;;;;;;;;5009668;28;20454;-78
2023/06/18 14:17:16;;;;;;;8.23;5.32;;;;;;;;;;5009328;28;20408;-78
2023/06/18 14:19:42;;;;;;;5.60;5.10;;;;;;;;;;4992052;28;20478;-78
2023/06/18 14:22:08;;;;;;;5.45;4.95;;;;;;;;;;5009344;28;20061;-78
2023/06/18 14:24:34;;;;;;;6.05;5.55;;;;;;;;;;5009665;28;20072;-78
2023/06/18 14:27:02;;;;;;;8.30;5.63;;;;;;;;;;5007908;28;20463;-78
2023/06/18 14:29:32;;;;;;;6.32;5.38;;;;;;;;;;5008269;28;20050;-79
2023/06/18 14:31:57;;;;;;;6.95;6.25;;;;;;;;;;5009325;28;20028;-79
2023/06/18 14:34:23;;;;;;;7.22;5.75;;;;;;;;;;5012161;28;20385;-78
2023/06/18 14:36:49;;;;;;;6.03;5.43;;;;;;;;;;5011717;28;20037;-78
2023/06/18 14:39:15;;;;;;;8.38;5.30;;;;;;;;;;5012810;28;20084;-77
2023/06/18 14:41:40;;;;;;;5.50;5.00;;;;;;;;;;5013083;28;20022;-79
2023/06/18 14:44:06;;;;;;;6.90;5.40;;;;;;;;;;5012853;28;20500;-77
2023/06/18 14:46:31;;;;;;;7.43;5.47;;;;;;;;;;5012737;28;20038;-78
2023/06/18 14:48:57;;;;;;;7.05;5.28;;;;;;;;;;5011823;28;20076;-78
2023/06/18 14:51:22;;;;;;;5.90;5.40;;;;;;;;;;5011577;28;20025;-78
2023/06/18 14:53:52;;;;;;;7.05;5.88;;;;;;;;;;5011829;28;20069;-79
2023/06/18 14:56:21;;;;;;;6.40;5.45;;;;;;;;;;5013553;28;20605;-80
2023/06/18 14:58:46;;;;;;;8.48;6.32;;;;;;;;;;5012467;28;20063;-80
2023/06/18 15:01:12;;;;;;;8.43;5.68;;;;;;;;;;5011205;28;20022;-80
2023/06/18 15:03:37;;;;;;;12.40;7.28;;;;;;;;;;5011453;28;20034;-80
2023/06/18 15:06:03;;;;;;;9.05;6.90;;;;;;;;;;5011161;28;20643;-79
2023/06/18 15:08:28;;;;;;;7.10;5.97;;;;;;;;;;5013074;28;20080;-79
2023/06/18 15:10:54;;;;;;;6.60;5.95;;;;;;;;;;5011577;28;20026;-79
2023/06/18 15:13:20;;;;;;;7.18;6.45;;;;;;;;;;5011575;28;20605;-79
2023/06/18 15:15:46;;;;;;;11.27;6.72;;;;;;;;;;5011743;28;20032;-80
2023/06/18 15:18:12;;;;;;;7.18;6.32;;;;;;;;;;5012006;28;20085;-79